Time;durP1;ratioP1;P1;durP2;ratioP2;P2;SDS_P1;SDS_P2;PMS_P1;PMS_P2;Temp;Humidity;BMP_temperature;BMP_pressure;BME280_temperature;BME280_humidity;BME280_pressure;Samples;Min_cycle;Max_cycle;Signal;HPM_P1;HPM_P2
2021/07/18 08:53:19;;;;;;;3.30;2.60;;;22.00;90.20;;;;;;6236836;22;20089;31
2021/07/18 08:55:54;;;;;;;3.75;2.42;;;22.20;88.60;;;;;;6235996;23;20041;-88
2021/07/18 08:58:22;;;;;;;3.78;2.60;;;22.30;88.10;;;;;;6219019;23;20075;-90
2021/07/18 09:00:52;;;;;;;3.67;2.35;;;22.40;88.00;;;;;;6242384;23;20007;-88
2021/07/18 09:03:23;;;;;;;4.30;2.08;;;22.40;87.80;;;;;;6193436;23;20044;-88
2021/07/18 09:06:08;;;;;;;2.90;2.15;;;22.50;87.70;;;;;;6217615;23;20004;-88
2021/07/18 09:08:46;;;;;;;4.28;2.20;;;22.60;87.80;;;;;;6217123;23;20000;-87
2021/07/18 09:11:27;;;;;;;3.33;2.28;;;22.60;87.60;;;;;;6218749;23;20091;-87
2021/07/18 09:14:13;;;;;;;3.95;2.63;;;22.70;87.10;;;;;;6194676;23;20005;-88
2021/07/18 09:16:44;;;;;;;3.33;2.20;;;22.80;86.40;;;;;;6218497;23;20004;-87
2021/07/18 09:19:46;;;;;;;3.60;2.42;;;22.90;86.00;;;;;;6220326;23;20445;-86
2021/07/18 09:22:25;;;;;;;2.55;2.17;;;23.00;84.50;;;;;;6246222;23;20011;-87
2021/07/18 09:25:06;;;;;;;3.65;2.45;;;23.00;84.60;;;;;;6219448;23;20008;-86
2021/07/18 09:27:47;;;;;;;4.40;2.00;;;23.10;84.80;;;;;;6219890;23;20035;-88
2021/07/18 09:30:27;;;;;;;;;;;;;;;;;;;;;
2021/07/18 09:32:53;;;;;;;3.05;2.10;;;23.20;84.50;;;;;;6247394;23;20048;-87
2021/07/18 09:35:23;;;;;;;4.60;2.00;;;23.20;82.90;;;;;;6219929;23;20032;-86
2021/07/18 09:37:49;;;;;;;3.15;1.70;;;23.30;82.80;;;;;;6246076;23;20000;-87
2021/07/18 09:40:21;;;;;;;2.28;1.55;;;23.40;82.70;;;;;;6221483;23;20004;-89
2021/07/18 09:42:54;;;;;;;3.33;2.20;;;23.40;83.10;;;;;;6247100;23;19996;-89
2021/07/18 09:45:26;;;;;;;2.78;2.10;;;23.50;82.80;;;;;;6196959;23;20000;-88
2021/07/18 09:47:55;;;;;;;2.20;1.83;;;23.60;82.30;;;;;;6248461;23;20010;-87
2021/07/18 09:50:45;;;;;;;4.85;2.60;;;23.50;82.40;;;;;;6221059;23;20075;-88
2021/07/18 09:53:28;;;;;;;3.85;2.10;;;23.60;81.50;;;;;;6219827;23;20000;-88
2021/07/18 09:56:32;;;;;;;2.67;1.92;;;23.70;81.40;;;;;;6246894;23;20012;-89
2021/07/18 09:59:03;;;;;;;2.53;1.90;;;23.80;80.50;;;;;;6245765;23;20012;-89
2021/07/18 10:01:37;;;;;;;4.20;2.00;;;23.80;80.50;;;;;;6216161;23;20015;-89
2021/07/18 10:04:03;;;;;;;2.80;1.77;;;23.90;80.90;;;;;;6222221;23;20011;-88
2021/07/18 10:06:47;;;;;;;2.25;1.80;;;23.90;81.10;;;;;;6220878;23;20004;-88
2021/07/18 10:09:15;;;;;;;2.55;2.08;;;23.90;81.20;;;;;;6247555;23;20035;-89
2021/07/18 10:11:41;;;;;;;2.15;1.73;;;23.90;81.20;;;;;;6221269;23;20007;-89
2021/07/18 10:14:07;;;;;;;3.00;1.90;;;23.90;81.10;;;;;;6220342;23;20094;-88
2021/07/18 10:16:41;;;;;;;3.50;1.73;;;24.00;80.50;;;;;;6221677;23;20019;-88
2021/07/18 10:19:11;;;;;;;2.38;1.67;;;24.00;80.30;;;;;;6220805;23;20434;-88
2021/07/18 10:21:42;;;;;;;4.43;1.90;;;24.10;79.90;;;;;;6248423;23;20000;-89
2021/07/18 10:24:10;;;;;;;1.67;1.45;;;24.20;78.40;;;;;;6247977;23;19996;-89
2021/07/18 10:26:36;;;;;;;3.10;1.77;;;24.20;78.40;;;;;;6221121;23;20000;-87
2021/07/18 10:29:05;;;;;;;2.60;1.77;;;24.30;78.10;;;;;;6220656;23;20019;-88
2021/07/18 10:31:49;;;;;;;2.53;1.67;;;24.30;76.10;;;;;;6220899;23;20004;-88
2021/07/18 10:34:31;;;;;;;3.60;2.13;;;24.40;76.00;;;;;;6220746;23;20000;-89
2021/07/18 10:36:57;;;;;;;3.38;1.85;;;24.40;76.10;;;;;;6246412;23;20036;-89
2021/07/18 10:39:32;;;;;;;1.92;1.63;;;24.40;75.40;;;;;;6246652;23;20066;-87
2021/07/18 10:42:23;;;;;;;3.42;1.77;;;24.50;75.20;;;;;;6219898;23;20430;-89
2021/07/18 10:45:14;;;;;;;2.95;1.50;;;24.60;75.40;;;;;;6218131;23;20438;-88
2021/07/18 10:48:05;;;;;;;2.00;1.80;;;24.60;76.00;;;;;;6234327;23;20057;-87
2021/07/18 10:51:17;;;;;;;1.75;1.48;;;24.60;74.60;;;;;;6245143;23;20334;-88
2021/07/18 10:53:45;;;;;;;2.08;1.80;;;24.70;75.10;;;;;;6193882;23;20456;-88
2021/07/18 10:57:09;;;;;;;2.60;1.80;;;24.70;74.50;;;;;;6189622;23;20321;-90
2021/07/18 10:59:44;;;;;;;2.00;1.80;;;24.80;73.40;;;;;;6214825;23;20086;-88
2021/07/18 11:02:17;;;;;;;1.85;1.75;;;24.90;73.30;;;;;;6187876;23;20008;-90
2021/07/18 11:04:52;;;;;;;2.20;2.00;;;24.90;72.70;;;;;;6213589;23;20005;-89
2021/07/18 11:07:21;;;;;;;4.78;1.85;;;24.90;71.80;;;;;;6215430;23;20061;-88
2021/07/18 11:09:51;;;;;;;4.20;2.10;;;25.00;71.10;;;;;;6188838;23;20051;-88
2021/07/18 11:12:30;;;;;;;1.90;1.75;;;25.00;70.70;;;;;;6189561;23;20005;-88
2021/07/18 11:16:02;;;;;;;;;;;;;;;;;;;;;
2021/07/18 11:18:38;;;;;;;2.95;2.30;;;25.20;70.90;;;;;;6131504;23;20089;-88
2021/07/18 11:21:31;;;;;;;3.63;2.83;;;25.20;71.10;;;;;;6163341;23;20009;-87
2021/07/18 11:24:00;;;;;;;3.22;2.25;;;25.20;71.40;;;;;;6187234;23;20414;-90
2021/07/18 11:26:49;;;;;;;2.40;2.20;;;25.20;71.40;;;;;;6214373;23;20036;-86
2021/07/18 11:29:34;;;;;;;4.57;2.20;;;25.30;70.80;;;;;;6188009;23;20008;-88
2021/07/18 11:32:23;;;;;;;3.50;2.53;;;25.30;71.50;;;;;;6187168;23;20003;-88
2021/07/18 11:34:57;;;;;;;3.70;2.50;;;25.40;69.70;;;;;;6187780;23;20001;-86
2021/07/18 11:37:31;;;;;;;3.33;2.40;;;25.40;69.40;;;;;;6187454;23;20013;-85
2021/07/18 11:40:03;;;;;;;3.83;2.33;;;25.40;69.10;;;;;;6187357;23;20000;-86
2021/07/18 11:43:04;;;;;;;6.50;2.67;;;25.40;68.70;;;;;;6187832;23;20000;-87
2021/07/18 11:45:31;;;;;;;3.95;2.40;;;25.50;67.20;;;;;;6186400;23;20000;-86
2021/07/18 11:48:02;;;;;;;3.60;2.53;;;25.60;67.80;;;;;;6213710;23;20027;-87
2021/07/18 11:50:31;;;;;;;3.95;2.42;;;25.60;67.70;;;;;;6212392;23;20005;-86
2021/07/18 11:52:59;;;;;;;3.38;2.40;;;25.70;67.50;;;;;;6162158;23;20005;-87
2021/07/18 11:55:34;;;;;;;2.90;2.28;;;25.70;68.40;;;;;;6147903;23;20030;-86
2021/07/18 11:58:00;;;;;;;3.50;2.17;;;25.70;67.90;;;;;;6091194;23;20400;-86
2021/07/18 12:00:26;;;;;;;3.47;2.20;;;25.70;66.90;;;;;;6216347;23;20002;-86
2021/07/18 12:03:05;;;;;;;2.45;2.15;;;25.80;67.90;;;;;;6191800;23;20041;-86
2021/07/18 12:05:31;;;;;;;2.70;2.35;;;25.80;68.40;;;;;;6090465;23;20007;-87
2021/07/18 12:08:04;;;;;;;3.25;2.45;;;25.80;68.10;;;;;;6216899;23;20037;-87
2021/07/18 12:11:05;;;;;;;3.47;2.33;;;25.90;68.40;;;;;;6192138;23;20379;-85
2021/07/18 12:13:37;;;;;;;3.65;2.40;;;25.90;68.20;;;;;;6216217;23;20006;-86
2021/07/18 12:16:09;;;;;;;2.33;2.13;;;25.90;68.80;;;;;;6089493;23;20382;-86
2021/07/18 12:18:43;;;;;;;2.55;2.22;;;26.00;68.50;;;;;;6191799;23;20013;-86
2021/07/18 12:21:23;;;;;;;2.40;2.20;;;26.00;68.60;;;;;;6167824;23;20369;-87
2021/07/18 12:24:31;;;;;;;2.88;2.13;;;26.10;68.60;;;;;;6216806;23;20006;-87
2021/07/18 12:27:08;;;;;;;4.60;2.47;;;26.10;67.70;;;;;;6208637;23;20063;-87
2021/07/18 12:29:54;;;;;;;2.30;2.10;;;26.10;68.90;;;;;;6217549;23;20007;-88
2021/07/18 12:32:27;;;;;;;2.63;2.33;;;26.10;69.80;;;;;;6191889;23;20856;-88
2021/07/18 12:34:58;;;;;;;2.70;2.40;;;26.10;70.60;;;;;;6192962;23;20010;-88
2021/07/18 12:37:31;;;;;;;3.22;2.50;;;26.10;69.30;;;;;;6091700;23;20011;-88
2021/07/18 12:40:04;;;;;;;3.50;2.47;;;26.10;68.70;;;;;;6192347;23;20019;-89
2021/07/18 12:42:48;;;;;;;3.75;2.50;;;26.10;68.50;;;;;;6167359;23;20375;-89
2021/07/18 12:45:20;;;;;;;3.20;2.42;;;26.10;66.70;;;;;;6192221;23;19999;-88
2021/07/18 12:48:02;;;;;;;3.17;2.78;;;26.20;66.30;;;;;;6092997;23;20408;-89
2021/07/18 12:50:35;;;;;;;2.95;2.65;;;26.30;65.40;;;;;;6093403;23;20037;-90
2021/07/18 12:53:20;;;;;;;2.75;2.25;;;26.40;65.60;;;;;;6194225;23;20090;-87
2021/07/18 12:56:31;;;;;;;3.67;2.40;;;26.40;66.40;;;;;;6213579;23;20020;-88
2021/07/18 12:59:02;;;;;;;3.00;2.70;;;26.40;64.60;;;;;;6184248;23;20019;-90
2021/07/18 17:23:47;;;;;;;4.32;2.35;;;25.10;65.00;;;;;;6168827;22;20511;-87
2021/07/18 17:26:32;;;;;;;7.07;2.60;;;25.00;64.00;;;;;;6257404;22;20001;-87
2021/07/18 17:29:57;;;;;;;;;;;;;;;;;;;;;
2021/07/18 17:32:28;;;;;;;5.68;2.70;;;24.90;64.00;;;;;;6153263;22;20051;-88
2021/07/18 17:41:24;;;;;;;;;;;;;;;;;;;;;
2021/07/18 17:44:19;;;;;;;5.03;2.60;;;24.60;65.40;;;;;;6230880;22;20075;-87
2021/07/18 17:47:06;;;;;;;;;;;;;;;;;;;;;
2021/07/18 17:50:42;;;;;;;4.20;2.70;;;24.40;65.80;;;;;;6222986;22;20072;-90
2021/07/18 17:56:33;;;;;;;3.90;2.38;;;24.20;66.60;;;;;;6152289;22;20412;-86
2021/07/18 18:03:07;;;;;;;;;;;;;;;;;;;;;
2021/07/18 18:06:14;;;;;;;3.33;2.33;;;24.00;67.50;;;;;;6209375;22;20080;-87
2021/07/18 18:16:02;;;;;;;4.43;2.33;;;23.70;67.30;;;;;;6154141;22;20012;-88
2021/07/18 18:19:06;;;;;;;;;;;;;;;;;;;;;
2021/07/18 18:22:05;;;;;;;5.65;2.47;;;23.60;67.50;;;;;;6153427;22;20088;-89
2021/07/18 18:25:04;;;;;;;3.17;2.00;;;23.50;66.90;;;;;;6204825;22;20008;-88
2021/07/18 18:31:25;;;;;;;;;;;;;;;;;;;;;
2021/07/18 18:34:32;;;;;;;3.05;2.00;;;23.20;66.80;;;;;;6153103;22;20093;-87
2021/07/18 18:38:08;;;;;;;3.83;2.10;;;23.10;67.00;;;;;;6151196;22;20020;-87
2021/07/18 18:47:28;;;;;;;;;;;;;;;;;;;;;
2021/07/18 18:53:17;;;;;;;;;;;;;;;;;;;;;
2021/07/18 18:56:23;;;;;;;;;;;;;;;;;;;;;
2021/07/18 19:06:24;;;;;;;2.00;1.63;;;22.50;66.60;;;;;;5947902;24;20414;-89
2021/07/18 19:15:31;;;;;;;;;;;;;;;;;;;;;
2021/07/18 19:18:44;;;;;;;1.90;1.60;;;22.30;67.20;;;;;;6219177;22;20085;-89
2021/07/18 19:21:31;;;;;;;2.38;1.48;;;22.30;67.50;;;;;;6253020;22;20332;-88
2021/07/18 19:27:50;;;;;;;1.60;1.40;;;22.20;68.00;;;;;;6151475;22;20014;-87
2021/07/18 19:34:01;;;;;;;2.95;1.55;;;22.10;68.70;;;;;;6150016;23;20033;-87
